sensor_id;sensor_type;location;lat;lon;timestamp;P1;durP1;ratioP1;P2;durP2;ratioP2
10721;SDS011;5412;59.450;18.124;2023-01-13T00:01:17;6.93;;;2.00;;
10721;SDS011;5412;59.450;18.124;2023-01-13T00:03:45;6.60;;;1.77;;
10721;SDS011;5412;59.450;18.124;2023-01-13T00:06:12;5.43;;;2.30;;
10721;SDS011;5412;59.450;18.124;2023-01-13T00:08:46;3.57;;;1.80;;
10721;SDS011;5412;59.450;18.124;2023-01-13T00:11:13;3.60;;;1.80;;
10721;SDS011;5412;59.450;18.124;2023-01-13T00:13:38;4.23;;;1.87;;
10721;SDS011;5412;59.450;18.124;2023-01-13T00:16:05;4.93;;;2.00;;
10721;SDS011;5412;59.450;18.124;2023-01-13T00:18:36;5.60;;;1.50;;
10721;SDS011;5412;59.450;18.124;2023-01-13T00:21:02;6.37;;;1.60;;
10721;SDS011;5412;59.450;18.124;2023-01-13T00:23:35;4.57;;;1.40;;
10721;SDS011;5412;59.450;18.124;2023-01-13T00:26:05;9.07;;;2.40;;
10721;SDS011;5412;59.450;18.124;2023-01-13T00:28:33;5.20;;;2.10;;
10721;SDS011;5412;59.450;18.124;2023-01-13T00:33:32;5.83;;;1.50;;
10721;SDS011;5412;59.450;18.124;2023-01-13T00:35:59;4.63;;;1.37;;
10721;SDS011;5412;59.450;18.124;2023-01-13T00:38:26;6.37;;;1.97;;
10721;SDS011;5412;59.450;18.124;2023-01-13T00:40:59;10.57;;;1.60;;
10721;SDS011;5412;59.450;18.124;2023-01-13T00:43:25;4.33;;;1.50;;
10721;SDS011;5412;59.450;18.124;2023-01-13T00:45:52;2.20;;;1.40;;
10721;SDS011;5412;59.450;18.124;2023-01-13T00:48:18;3.47;;;1.43;;
10721;SDS011;5412;59.450;18.124;2023-01-13T00:50:45;4.97;;;1.53;;
10721;SDS011;5412;59.450;18.124;2023-01-13T00:53:18;6.90;;;1.53;;
10721;SDS011;5412;59.450;18.124;2023-01-13T00:55:44;5.63;;;1.87;;
10721;SDS011;5412;59.450;18.124;2023-01-13T00:58:09;4.83;;;1.77;;
10721;SDS011;5412;59.450;18.124;2023-01-13T01:00:35;4.57;;;1.43;;
10721;SDS011;5412;59.450;18.124;2023-01-13T01:03:01;3.80;;;1.50;;
10721;SDS011;5412;59.450;18.124;2023-01-13T01:05:27;3.10;;;1.60;;
10721;SDS011;5412;59.450;18.124;2023-01-13T01:07:52;3.73;;;1.30;;
10721;SDS011;5412;59.450;18.124;2023-01-13T01:10:18;3.70;;;1.30;;
10721;SDS011;5412;59.450;18.124;2023-01-13T01:12:44;10.50;;;1.80;;
10721;SDS011;5412;59.450;18.124;2023-01-13T01:15:10;3.30;;;1.40;;
10721;SDS011;5412;59.450;18.124;2023-01-13T01:17:35;3.93;;;1.47;;
10721;SDS011;5412;59.450;18.124;2023-01-13T01:20:02;4.73;;;1.87;;
10721;SDS011;5412;59.450;18.124;2023-01-13T01:22:29;8.97;;;1.83;;
10721;SDS011;5412;59.450;18.124;2023-01-13T01:24:54;4.37;;;1.70;;
10721;SDS011;5412;59.450;18.124;2023-01-13T01:27:20;7.27;;;1.50;;
10721;SDS011;5412;59.450;18.124;2023-01-13T01:29:46;3.97;;;1.57;;
10721;SDS011;5412;59.450;18.124;2023-01-13T01:32:11;3.57;;;1.30;;
10721;SDS011;5412;59.450;18.124;2023-01-13T01:34:37;5.10;;;1.37;;
10721;SDS011;5412;59.450;18.124;2023-01-13T01:37:03;2.93;;;1.43;;
10721;SDS011;5412;59.450;18.124;2023-01-13T01:39:29;3.67;;;1.37;;
10721;SDS011;5412;59.450;18.124;2023-01-13T01:41:55;5.23;;;1.43;;
10721;SDS011;5412;59.450;18.124;2023-01-13T01:44:59;3.27;;;1.80;;
10721;SDS011;5412;59.450;18.124;2023-01-13T01:47:27;3.87;;;1.40;;
10721;SDS011;5412;59.450;18.124;2023-01-13T01:49:55;4.50;;;1.30;;
10721;SDS011;5412;59.450;18.124;2023-01-13T01:52:28;4.70;;;1.60;;
10721;SDS011;5412;59.450;18.124;2023-01-13T01:55:15;3.80;;;1.37;;
10721;SDS011;5412;59.450;18.124;2023-01-13T02:00:18;6.57;;;1.87;;
10721;SDS011;5412;59.450;18.124;2023-01-13T02:02:44;3.10;;;1.47;;
10721;SDS011;5412;59.450;18.124;2023-01-13T02:05:13;3.73;;;1.67;;
10721;SDS011;5412;59.450;18.124;2023-01-13T02:07:39;5.00;;;1.43;;
10721;SDS011;5412;59.450;18.124;2023-01-13T02:10:08;4.93;;;1.40;;
10721;SDS011;5412;59.450;18.124;2023-01-13T02:12:37;8.70;;;1.73;;
10721;SDS011;5412;59.450;18.124;2023-01-13T02:15:09;3.57;;;1.93;;
10721;SDS011;5412;59.450;18.124;2023-01-13T02:30:52;2.90;;;1.30;;
10721;SDS011;5412;59.450;18.124;2023-01-13T02:36:29;6.00;;;1.30;;
10721;SDS011;5412;59.450;18.124;2023-01-13T02:44:28;2.77;;;1.40;;
10721;SDS011;5412;59.450;18.124;2023-01-13T02:47:05;3.83;;;1.40;;
10721;SDS011;5412;59.450;18.124;2023-01-13T02:49:45;6.57;;;1.80;;
10721;SDS011;5412;59.450;18.124;2023-01-13T02:52:20;3.53;;;1.50;;
10721;SDS011;5412;59.450;18.124;2023-01-13T02:54:54;6.20;;;1.67;;
10721;SDS011;5412;59.450;18.124;2023-01-13T02:57:25;6.93;;;1.50;;
10721;SDS011;5412;59.450;18.124;2023-01-13T02:59:53;2.57;;;1.23;;
10721;SDS011;5412;59.450;18.124;2023-01-13T03:02:20;3.80;;;1.97;;
10721;SDS011;5412;59.450;18.124;2023-01-13T03:04:49;4.83;;;1.90;;
10721;SDS011;5412;59.450;18.124;2023-01-13T03:12:54;2.57;;;1.50;;
10721;SDS011;5412;59.450;18.124;2023-01-13T03:18:22;3.30;;;1.70;;
10721;SDS011;5412;59.450;18.124;2023-01-13T03:23:33;1.77;;;1.23;;
10721;SDS011;5412;59.450;18.124;2023-01-13T03:28:42;3.60;;;1.80;;
10721;SDS011;5412;59.450;18.124;2023-01-13T03:31:14;3.33;;;1.70;;
10721;SDS011;5412;59.450;18.124;2023-01-13T03:34:06;7.30;;;2.00;;
10721;SDS011;5412;59.450;18.124;2023-01-13T03:36:36;4.90;;;2.00;;
10721;SDS011;5412;59.450;18.124;2023-01-13T03:39:11;7.00;;;2.10;;
10721;SDS011;5412;59.450;18.124;2023-01-13T03:41:45;4.90;;;1.90;;
10721;SDS011;5412;59.450;18.124;2023-01-13T03:44:21;2.03;;;1.60;;
10721;SDS011;5412;59.450;18.124;2023-01-13T03:47:19;4.60;;;1.70;;
10721;SDS011;5412;59.450;18.124;2023-01-13T03:50:02;5.30;;;1.77;;
10721;SDS011;5412;59.450;18.124;2023-01-13T03:52:36;4.13;;;1.90;;
10721;SDS011;5412;59.450;18.124;2023-01-13T03:55:22;6.80;;;2.10;;
10721;SDS011;5412;59.450;18.124;2023-01-13T03:58:13;5.70;;;2.03;;
10721;SDS011;5412;59.450;18.124;2023-01-13T04:01:17;5.70;;;1.67;;
10721;SDS011;5412;59.450;18.124;2023-01-13T04:03:56;4.53;;;1.83;;
10721;SDS011;5412;59.450;18.124;2023-01-13T04:12:08;2.90;;;1.50;;
10721;SDS011;5412;59.450;18.124;2023-01-13T04:14:38;3.77;;;1.60;;
10721;SDS011;5412;59.450;18.124;2023-01-13T04:17:04;3.40;;;1.90;;
10721;SDS011;5412;59.450;18.124;2023-01-13T04:19:30;8.10;;;1.57;;
10721;SDS011;5412;59.450;18.124;2023-01-13T04:21:57;7.30;;;1.87;;
10721;SDS011;5412;59.450;18.124;2023-01-13T04:24:23;5.23;;;1.50;;
10721;SDS011;5412;59.450;18.124;2023-01-13T04:26:49;4.70;;;2.07;;
10721;SDS011;5412;59.450;18.124;2023-01-13T04:29:15;3.90;;;1.70;;
10721;SDS011;5412;59.450;18.124;2023-01-13T04:31:41;5.10;;;1.50;;
10721;SDS011;5412;59.450;18.124;2023-01-13T04:34:07;3.87;;;1.50;;
10721;SDS011;5412;59.450;18.124;2023-01-13T04:36:34;4.60;;;1.73;;
10721;SDS011;5412;59.450;18.124;2023-01-13T04:39:00;6.70;;;1.83;;
10721;SDS011;5412;59.450;18.124;2023-01-13T04:41:26;2.93;;;1.47;;
10721;SDS011;5412;59.450;18.124;2023-01-13T04:43:52;3.60;;;1.60;;
10721;SDS011;5412;59.450;18.124;2023-01-13T04:46:17;3.27;;;1.80;;
10721;SDS011;5412;59.450;18.124;2023-01-13T04:48:43;3.50;;;1.47;;
10721;SDS011;5412;59.450;18.124;2023-01-13T04:51:09;5.73;;;1.73;;
10721;SDS011;5412;59.450;18.124;2023-01-13T04:53:34;3.80;;;1.70;;
10721;SDS011;5412;59.450;18.124;2023-01-13T04:56:00;6.30;;;2.03;;
10721;SDS011;5412;59.450;18.124;2023-01-13T04:58:26;2.63;;;1.63;;
10721;SDS011;5412;59.450;18.124;2023-01-13T05:00:52;2.57;;;1.30;;
10721;SDS011;5412;59.450;18.124;2023-01-13T05:03:18;3.87;;;1.60;;
10721;SDS011;5412;59.450;18.124;2023-01-13T05:05:44;2.07;;;1.50;;
10721;SDS011;5412;59.450;18.124;2023-01-13T05:08:14;1.63;;;1.47;;
10721;SDS011;5412;59.450;18.124;2023-01-13T05:10:40;3.57;;;1.50;;
10721;SDS011;5412;59.450;18.124;2023-01-13T05:13:07;3.37;;;1.50;;
10721;SDS011;5412;59.450;18.124;2023-01-13T05:15:52;3.43;;;1.53;;
10721;SDS011;5412;59.450;18.124;2023-01-13T05:18:36;2.87;;;1.30;;
10721;SDS011;5412;59.450;18.124;2023-01-13T05:21:02;5.03;;;1.93;;
10721;SDS011;5412;59.450;18.124;2023-01-13T05:23:27;4.23;;;1.77;;
10721;SDS011;5412;59.450;18.124;2023-01-13T05:26:12;4.70;;;1.83;;
10721;SDS011;5412;59.450;18.124;2023-01-13T05:28:37;4.10;;;1.73;;
10721;SDS011;5412;59.450;18.124;2023-01-13T05:31:03;2.80;;;1.87;;
10721;SDS011;5412;59.450;18.124;2023-01-13T05:33:29;4.90;;;1.77;;
10721;SDS011;5412;59.450;18.124;2023-01-13T05:35:55;4.60;;;1.50;;
10721;SDS011;5412;59.450;18.124;2023-01-13T05:38:21;3.93;;;2.20;;
10721;SDS011;5412;59.450;18.124;2023-01-13T05:40:46;4.53;;;1.60;;
10721;SDS011;5412;59.450;18.124;2023-01-13T05:43:31;5.07;;;1.80;;
10721;SDS011;5412;59.450;18.124;2023-01-13T05:46:05;4.50;;;1.70;;
10721;SDS011;5412;59.450;18.124;2023-01-13T05:48:36;3.33;;;1.70;;
10721;SDS011;5412;59.450;18.124;2023-01-13T05:51:04;2.57;;;1.40;;
10721;SDS011;5412;59.450;18.124;2023-01-13T05:53:31;2.23;;;1.20;;
10721;SDS011;5412;59.450;18.124;2023-01-13T05:55:57;3.10;;;1.30;;
10721;SDS011;5412;59.450;18.124;2023-01-13T05:58:24;2.70;;;1.60;;
10721;SDS011;5412;59.450;18.124;2023-01-13T06:00:51;2.60;;;1.50;;
10721;SDS011;5412;59.450;18.124;2023-01-13T06:03:17;3.20;;;1.77;;
10721;SDS011;5412;59.450;18.124;2023-01-13T06:05:47;4.60;;;1.60;;
10721;SDS011;5412;59.450;18.124;2023-01-13T06:08:15;3.57;;;2.00;;
10721;SDS011;5412;59.450;18.124;2023-01-13T06:10:42;5.00;;;2.30;;
10721;SDS011;5412;59.450;18.124;2023-01-13T06:13:09;2.70;;;2.30;;
10721;SDS011;5412;59.450;18.124;2023-01-13T06:15:34;3.80;;;2.10;;
10721;SDS011;5412;59.450;18.124;2023-01-13T06:18:01;2.33;;;1.63;;
10721;SDS011;5412;59.450;18.124;2023-01-13T06:20:28;5.30;;;2.83;;
10721;SDS011;5412;59.450;18.124;2023-01-13T06:22:54;2.17;;;1.70;;
10721;SDS011;5412;59.450;18.124;2023-01-13T06:27:57;3.93;;;2.00;;
10721;SDS011;5412;59.450;18.124;2023-01-13T06:30:24;2.17;;;1.87;;
10721;SDS011;5412;59.450;18.124;2023-01-13T06:32:56;3.40;;;2.30;;
10721;SDS011;5412;59.450;18.124;2023-01-13T06:35:27;2.63;;;2.00;;
10721;SDS011;5412;59.450;18.124;2023-01-13T06:37:57;4.67;;;2.57;;
10721;SDS011;5412;59.450;18.124;2023-01-13T06:40:26;2.67;;;1.97;;
10721;SDS011;5412;59.450;18.124;2023-01-13T06:42:52;2.57;;;1.80;;
10721;SDS011;5412;59.450;18.124;2023-01-13T06:45:39;2.47;;;1.90;;
10721;SDS011;5412;59.450;18.124;2023-01-13T06:48:10;3.70;;;1.70;;
10721;SDS011;5412;59.450;18.124;2023-01-13T06:50:36;2.90;;;1.70;;
10721;SDS011;5412;59.450;18.124;2023-01-13T06:53:02;3.57;;;1.90;;
10721;SDS011;5412;59.450;18.124;2023-01-13T06:55:28;2.10;;;1.60;;
10721;SDS011;5412;59.450;18.124;2023-01-13T06:57:55;2.53;;;1.60;;
10721;SDS011;5412;59.450;18.124;2023-01-13T07:00:23;1.80;;;1.47;;
10721;SDS011;5412;59.450;18.124;2023-01-13T07:02:49;3.13;;;1.40;;
10721;SDS011;5412;59.450;18.124;2023-01-13T07:05:15;2.23;;;1.50;;
10721;SDS011;5412;59.450;18.124;2023-01-13T07:07:43;2.97;;;1.30;;
10721;SDS011;5412;59.450;18.124;2023-01-13T07:10:09;2.30;;;1.50;;
10721;SDS011;5412;59.450;18.124;2023-01-13T07:12:46;3.40;;;1.20;;
10721;SDS011;5412;59.450;18.124;2023-01-13T07:15:31;2.87;;;1.27;;
10721;SDS011;5412;59.450;18.124;2023-01-13T07:17:58;2.47;;;1.37;;
10721;SDS011;5412;59.450;18.124;2023-01-13T07:20:24;2.57;;;1.10;;
10721;SDS011;5412;59.450;18.124;2023-01-13T07:22:53;1.40;;;0.90;;
10721;SDS011;5412;59.450;18.124;2023-01-13T07:25:19;1.40;;;1.00;;
10721;SDS011;5412;59.450;18.124;2023-01-13T07:27:45;1.40;;;1.30;;
10721;SDS011;5412;59.450;18.124;2023-01-13T07:30:11;2.03;;;1.30;;
10721;SDS011;5412;59.450;18.124;2023-01-13T07:32:37;1.40;;;1.07;;
10721;SDS011;5412;59.450;18.124;2023-01-13T07:35:03;1.50;;;1.10;;
10721;SDS011;5412;59.450;18.124;2023-01-13T07:37:33;1.40;;;1.10;;
10721;SDS011;5412;59.450;18.124;2023-01-13T07:40:00;1.90;;;1.10;;
10721;SDS011;5412;59.450;18.124;2023-01-13T07:42:27;3.50;;;1.23;;
10721;SDS011;5412;59.450;18.124;2023-01-13T07:45:12;4.40;;;1.70;;
10721;SDS011;5412;59.450;18.124;2023-01-13T07:47:38;4.67;;;1.40;;
10721;SDS011;5412;59.450;18.124;2023-01-13T07:50:05;3.40;;;1.40;;
10721;SDS011;5412;59.450;18.124;2023-01-13T07:52:31;2.63;;;1.20;;
10721;SDS011;5412;59.450;18.124;2023-01-13T07:54:57;1.73;;;0.97;;
10721;SDS011;5412;59.450;18.124;2023-01-13T07:57:23;3.00;;;1.33;;
10721;SDS011;5412;59.450;18.124;2023-01-13T07:59:49;3.20;;;1.40;;
10721;SDS011;5412;59.450;18.124;2023-01-13T08:02:14;3.97;;;1.30;;
10721;SDS011;5412;59.450;18.124;2023-01-13T08:04:40;5.17;;;1.27;;
10721;SDS011;5412;59.450;18.124;2023-01-13T08:07:06;6.37;;;1.43;;
10721;SDS011;5412;59.450;18.124;2023-01-13T08:09:32;4.73;;;1.30;;
10721;SDS011;5412;59.450;18.124;2023-01-13T08:11:57;4.00;;;1.73;;
10721;SDS011;5412;59.450;18.124;2023-01-13T08:14:42;3.00;;;1.47;;
10721;SDS011;5412;59.450;18.124;2023-01-13T08:17:08;1.40;;;1.10;;
10721;SDS011;5412;59.450;18.124;2023-01-13T08:19:34;3.80;;;1.30;;
10721;SDS011;5412;59.450;18.124;2023-01-13T08:22:00;2.03;;;0.97;;
10721;SDS011;5412;59.450;18.124;2023-01-13T08:24:26;2.50;;;1.17;;
10721;SDS011;5412;59.450;18.124;2023-01-13T08:26:52;2.73;;;1.30;;
10721;SDS011;5412;59.450;18.124;2023-01-13T08:29:18;4.43;;;1.30;;
10721;SDS011;5412;59.450;18.124;2023-01-13T08:31:44;4.80;;;1.10;;
10721;SDS011;5412;59.450;18.124;2023-01-13T08:34:09;4.60;;;1.33;;
10721;SDS011;5412;59.450;18.124;2023-01-13T08:36:35;4.67;;;1.27;;
10721;SDS011;5412;59.450;18.124;2023-01-13T08:39:01;4.47;;;1.60;;
10721;SDS011;5412;59.450;18.124;2023-01-13T08:41:27;3.00;;;1.43;;
10721;SDS011;5412;59.450;18.124;2023-01-13T08:44:11;1.60;;;1.07;;
10721;SDS011;5412;59.450;18.124;2023-01-13T08:46:36;3.10;;;1.10;;
10721;SDS011;5412;59.450;18.124;2023-01-13T08:49:02;2.63;;;1.27;;
10721;SDS011;5412;59.450;18.124;2023-01-13T08:51:28;3.40;;;1.20;;
10721;SDS011;5412;59.450;18.124;2023-01-13T08:53:54;4.13;;;1.20;;
10721;SDS011;5412;59.450;18.124;2023-01-13T08:56:20;4.03;;;1.10;;
10721;SDS011;5412;59.450;18.124;2023-01-13T08:58:45;1.80;;;1.00;;
10721;SDS011;5412;59.450;18.124;2023-01-13T09:01:16;4.03;;;1.20;;
10721;SDS011;5412;59.450;18.124;2023-01-13T09:03:45;4.57;;;1.30;;
10721;SDS011;5412;59.450;18.124;2023-01-13T09:06:11;1.73;;;0.93;;
10721;SDS011;5412;59.450;18.124;2023-01-13T09:08:36;1.93;;;0.90;;
10721;SDS011;5412;59.450;18.124;2023-01-13T09:11:02;3.17;;;1.07;;
10721;SDS011;5412;59.450;18.124;2023-01-13T09:13:48;3.80;;;1.30;;
10721;SDS011;5412;59.450;18.124;2023-01-13T09:16:14;2.43;;;0.90;;
10721;SDS011;5412;59.450;18.124;2023-01-13T09:18:40;1.50;;;0.93;;
10721;SDS011;5412;59.450;18.124;2023-01-13T09:21:07;2.93;;;1.10;;
10721;SDS011;5412;59.450;18.124;2023-01-13T09:23:35;2.87;;;1.03;;
10721;SDS011;5412;59.450;18.124;2023-01-13T09:26:00;2.80;;;0.90;;
10721;SDS011;5412;59.450;18.124;2023-01-13T09:28:26;6.63;;;1.03;;
10721;SDS011;5412;59.450;18.124;2023-01-13T09:30:52;2.13;;;0.80;;
10721;SDS011;5412;59.450;18.124;2023-01-13T09:33:17;1.63;;;0.70;;
10721;SDS011;5412;59.450;18.124;2023-01-13T09:36:02;1.83;;;1.10;;
10721;SDS011;5412;59.450;18.124;2023-01-13T09:38:28;1.47;;;0.80;;
10721;SDS011;5412;59.450;18.124;2023-01-13T09:40:54;0.70;;;0.70;;
10721;SDS011;5412;59.450;18.124;2023-01-13T09:43:22;1.80;;;0.63;;
10721;SDS011;5412;59.450;18.124;2023-01-13T09:46:18;2.30;;;0.63;;
10721;SDS011;5412;59.450;18.124;2023-01-13T09:49:21;2.87;;;0.63;;
10721;SDS011;5412;59.450;18.124;2023-01-13T09:55:03;1.47;;;0.60;;
10721;SDS011;5412;59.450;18.124;2023-01-13T09:57:35;0.90;;;0.50;;
10721;SDS011;5412;59.450;18.124;2023-01-13T10:00:15;0.50;;;0.40;;
10721;SDS011;5412;59.450;18.124;2023-01-13T10:02:56;0.97;;;0.57;;
10721;SDS011;5412;59.450;18.124;2023-01-13T10:08:34;0.50;;;0.40;;
10721;SDS011;5412;59.450;18.124;2023-01-13T10:11:04;6.07;;;0.63;;
10721;SDS011;5412;59.450;18.124;2023-01-13T10:13:57;0.40;;;0.40;;
10721;SDS011;5412;59.450;18.124;2023-01-13T10:19:25;0.87;;;0.43;;
10721;SDS011;5412;59.450;18.124;2023-01-13T10:22:02;0.43;;;0.43;;
10721;SDS011;5412;59.450;18.124;2023-01-13T10:27:24;0.33;;;0.33;;
10721;SDS011;5412;59.450;18.124;2023-01-13T10:30:14;0.80;;;0.60;;
10721;SDS011;5412;59.450;18.124;2023-01-13T10:38:21;0.40;;;0.37;;
10721;SDS011;5412;59.450;18.124;2023-01-13T10:40:55;0.23;;;0.20;;
10721;SDS011;5412;59.450;18.124;2023-01-13T10:43:21;0.70;;;0.60;;
10721;SDS011;5412;59.450;18.124;2023-01-13T10:45:51;0.87;;;0.50;;
10721;SDS011;5412;59.450;18.124;2023-01-13T10:48:30;0.40;;;0.40;;
10721;SDS011;5412;59.450;18.124;2023-01-13T10:53:51;0.40;;;0.40;;
10721;SDS011;5412;59.450;18.124;2023-01-13T10:56:27;0.40;;;0.40;;
10721;SDS011;5412;59.450;18.124;2023-01-13T11:04:37;0.47;;;0.47;;
10721;SDS011;5412;59.450;18.124;2023-01-13T11:15:42;0.77;;;0.70;;
10721;SDS011;5412;59.450;18.124;2023-01-13T11:18:25;0.80;;;0.80;;
10721;SDS011;5412;59.450;18.124;2023-01-13T11:21:19;1.07;;;0.97;;
10721;SDS011;5412;59.450;18.124;2023-01-13T11:23:49;1.63;;;1.30;;
10721;SDS011;5412;59.450;18.124;2023-01-13T11:26:35;2.43;;;1.60;;
10721;SDS011;5412;59.450;18.124;2023-01-13T11:30:09;3.07;;;1.87;;
10721;SDS011;5412;59.450;18.124;2023-01-13T11:32:21;3.17;;;1.73;;
10721;SDS011;5412;59.450;18.124;2023-01-13T11:34:54;4.30;;;2.40;;
10721;SDS011;5412;59.450;18.124;2023-01-13T11:37:32;3.70;;;2.50;;
10721;SDS011;5412;59.450;18.124;2023-01-13T11:45:45;5.43;;;2.17;;
10721;SDS011;5412;59.450;18.124;2023-01-13T11:48:20;3.13;;;2.17;;
10721;SDS011;5412;59.450;18.124;2023-01-13T11:57:09;4.93;;;1.97;;
10721;SDS011;5412;59.450;18.124;2023-01-13T12:05:40;1.80;;;1.63;;
10721;SDS011;5412;59.450;18.124;2023-01-13T12:08:16;2.47;;;1.50;;
10721;SDS011;5412;59.450;18.124;2023-01-13T12:16:32;3.97;;;1.60;;
10721;SDS011;5412;59.450;18.124;2023-01-13T12:24:29;3.73;;;1.33;;
10721;SDS011;5412;59.450;18.124;2023-01-13T12:27:05;1.27;;;1.00;;
10721;SDS011;5412;59.450;18.124;2023-01-13T12:29:35;1.43;;;1.30;;
10721;SDS011;5412;59.450;18.124;2023-01-13T12:32:04;3.90;;;1.37;;
10721;SDS011;5412;59.450;18.124;2023-01-13T12:46:07;6.77;;;1.50;;
10721;SDS011;5412;59.450;18.124;2023-01-13T12:53:52;3.73;;;0.90;;
10721;SDS011;5412;59.450;18.124;2023-01-13T12:56:29;6.13;;;1.30;;
10721;SDS011;5412;59.450;18.124;2023-01-13T13:01:41;1.80;;;1.00;;
10721;SDS011;5412;59.450;18.124;2023-01-13T13:04:16;2.73;;;1.30;;
10721;SDS011;5412;59.450;18.124;2023-01-13T13:06:45;7.03;;;1.70;;
10721;SDS011;5412;59.450;18.124;2023-01-13T13:09:31;7.70;;;1.67;;
10721;SDS011;5412;59.450;18.124;2023-01-13T13:12:21;7.67;;;1.40;;
10721;SDS011;5412;59.450;18.124;2023-01-13T13:15:21;4.17;;;1.43;;
10721;SDS011;5412;59.450;18.124;2023-01-13T13:18:32;3.40;;;1.53;;
10721;SDS011;5412;59.450;18.124;2023-01-13T13:26:19;3.10;;;1.67;;
10721;SDS011;5412;59.450;18.124;2023-01-13T13:32:01;7.03;;;1.90;;
10721;SDS011;5412;59.450;18.124;2023-01-13T13:34:58;6.40;;;1.60;;
10721;SDS011;5412;59.450;18.124;2023-01-13T13:39:52;5.97;;;2.00;;
10721;SDS011;5412;59.450;18.124;2023-01-13T13:42:39;4.07;;;2.03;;
10721;SDS011;5412;59.450;18.124;2023-01-13T13:45:27;7.73;;;1.70;;
10721;SDS011;5412;59.450;18.124;2023-01-13T13:50:51;6.20;;;2.17;;
10721;SDS011;5412;59.450;18.124;2023-01-13T13:53:33;9.33;;;2.33;;
10721;SDS011;5412;59.450;18.124;2023-01-13T13:56:03;3.90;;;2.00;;
10721;SDS011;5412;59.450;18.124;2023-01-13T13:58:38;5.53;;;2.43;;
10721;SDS011;5412;59.450;18.124;2023-01-13T14:01:04;5.67;;;1.77;;
10721;SDS011;5412;59.450;18.124;2023-01-13T14:03:31;4.40;;;1.53;;
10721;SDS011;5412;59.450;18.124;2023-01-13T14:06:01;6.87;;;2.20;;
10721;SDS011;5412;59.450;18.124;2023-01-13T14:08:32;7.37;;;1.50;;
10721;SDS011;5412;59.450;18.124;2023-01-13T14:10:59;5.43;;;1.77;;
10721;SDS011;5412;59.450;18.124;2023-01-13T14:13:26;8.77;;;1.97;;
10721;SDS011;5412;59.450;18.124;2023-01-13T14:15:57;3.47;;;1.70;;
10721;SDS011;5412;59.450;18.124;2023-01-13T14:18:25;6.13;;;1.80;;
10721;SDS011;5412;59.450;18.124;2023-01-13T14:20:59;9.03;;;2.03;;
10721;SDS011;5412;59.450;18.124;2023-01-13T14:23:29;9.63;;;1.93;;
10721;SDS011;5412;59.450;18.124;2023-01-13T14:26:01;10.30;;;2.10;;
10721;SDS011;5412;59.450;18.124;2023-01-13T14:28:38;13.83;;;1.63;;
10721;SDS011;5412;59.450;18.124;2023-01-13T14:31:05;4.90;;;1.80;;
10721;SDS011;5412;59.450;18.124;2023-01-13T14:33:33;9.00;;;2.00;;
10721;SDS011;5412;59.450;18.124;2023-01-13T14:38:31;5.30;;;2.00;;
10721;SDS011;5412;59.450;18.124;2023-01-13T14:41:07;7.87;;;2.10;;
10721;SDS011;5412;59.450;18.124;2023-01-13T14:43:46;6.40;;;1.90;;
10721;SDS011;5412;59.450;18.124;2023-01-13T14:46:13;10.13;;;1.97;;
10721;SDS011;5412;59.450;18.124;2023-01-13T14:48:41;6.93;;;2.20;;
10721;SDS011;5412;59.450;18.124;2023-01-13T14:51:12;9.57;;;2.03;;
10721;SDS011;5412;59.450;18.124;2023-01-13T14:53:46;5.27;;;1.93;;
10721;SDS011;5412;59.450;18.124;2023-01-13T14:56:48;7.13;;;2.40;;
10721;SDS011;5412;59.450;18.124;2023-01-13T14:59:32;8.20;;;2.57;;
10721;SDS011;5412;59.450;18.124;2023-01-13T15:02:00;8.10;;;2.07;;
10721;SDS011;5412;59.450;18.124;2023-01-13T15:04:46;8.33;;;2.17;;
10721;SDS011;5412;59.450;18.124;2023-01-13T15:07:16;12.17;;;2.63;;
10721;SDS011;5412;59.450;18.124;2023-01-13T15:09:52;5.27;;;2.07;;
10721;SDS011;5412;59.450;18.124;2023-01-13T15:12:22;8.23;;;2.10;;
10721;SDS011;5412;59.450;18.124;2023-01-13T15:14:54;7.87;;;2.17;;
10721;SDS011;5412;59.450;18.124;2023-01-13T15:17:20;12.40;;;2.27;;
10721;SDS011;5412;59.450;18.124;2023-01-13T15:19:46;5.30;;;2.20;;
10721;SDS011;5412;59.450;18.124;2023-01-13T15:22:12;10.23;;;2.40;;
10721;SDS011;5412;59.450;18.124;2023-01-13T15:24:38;6.63;;;2.00;;
10721;SDS011;5412;59.450;18.124;2023-01-13T15:27:09;5.27;;;1.87;;
10721;SDS011;5412;59.450;18.124;2023-01-13T15:29:41;8.63;;;2.10;;
10721;SDS011;5412;59.450;18.124;2023-01-13T15:32:10;10.53;;;2.10;;
10721;SDS011;5412;59.450;18.124;2023-01-13T15:34:42;7.90;;;2.10;;
10721;SDS011;5412;59.450;18.124;2023-01-13T15:37:09;9.07;;;3.10;;
10721;SDS011;5412;59.450;18.124;2023-01-13T15:39:35;14.00;;;3.30;;
10721;SDS011;5412;59.450;18.124;2023-01-13T15:42:00;7.93;;;2.07;;
10721;SDS011;5412;59.450;18.124;2023-01-13T15:44:44;17.50;;;3.13;;
10721;SDS011;5412;59.450;18.124;2023-01-13T15:47:29;9.07;;;2.23;;
10721;SDS011;5412;59.450;18.124;2023-01-13T15:49:54;13.90;;;3.13;;
10721;SDS011;5412;59.450;18.124;2023-01-13T15:52:22;9.37;;;3.00;;
10721;SDS011;5412;59.450;18.124;2023-01-13T15:54:49;11.63;;;2.60;;
10721;SDS011;5412;59.450;18.124;2023-01-13T15:57:23;10.07;;;2.30;;
10721;SDS011;5412;59.450;18.124;2023-01-13T15:59:52;10.83;;;2.67;;
10721;SDS011;5412;59.450;18.124;2023-01-13T16:02:22;8.50;;;2.47;;
10721;SDS011;5412;59.450;18.124;2023-01-13T16:04:49;15.57;;;2.90;;
10721;SDS011;5412;59.450;18.124;2023-01-13T16:07:18;11.27;;;3.60;;
10721;SDS011;5412;59.450;18.124;2023-01-13T16:09:45;12.33;;;2.37;;
10721;SDS011;5412;59.450;18.124;2023-01-13T16:12:11;16.67;;;3.23;;
10721;SDS011;5412;59.450;18.124;2023-01-13T16:14:37;11.37;;;3.37;;
10721;SDS011;5412;59.450;18.124;2023-01-13T16:17:20;15.93;;;3.10;;
10721;SDS011;5412;59.450;18.124;2023-01-13T16:19:47;16.43;;;3.00;;
10721;SDS011;5412;59.450;18.124;2023-01-13T16:22:13;10.93;;;2.83;;
10721;SDS011;5412;59.450;18.124;2023-01-13T16:24:40;12.30;;;3.23;;
10721;SDS011;5412;59.450;18.124;2023-01-13T16:27:16;13.23;;;3.23;;
10721;SDS011;5412;59.450;18.124;2023-01-13T16:29:44;19.27;;;4.00;;
10721;SDS011;5412;59.450;18.124;2023-01-13T16:32:11;26.30;;;3.63;;
10721;SDS011;5412;59.450;18.124;2023-01-13T16:34:37;16.07;;;3.57;;
10721;SDS011;5412;59.450;18.124;2023-01-13T16:37:03;14.00;;;2.97;;
10721;SDS011;5412;59.450;18.124;2023-01-13T16:39:36;24.07;;;3.80;;
10721;SDS011;5412;59.450;18.124;2023-01-13T16:42:01;14.83;;;3.23;;
10721;SDS011;5412;59.450;18.124;2023-01-13T16:44:28;16.43;;;3.07;;
10721;SDS011;5412;59.450;18.124;2023-01-13T16:46:53;13.20;;;3.23;;
10721;SDS011;5412;59.450;18.124;2023-01-13T16:49:19;18.50;;;3.57;;
10721;SDS011;5412;59.450;18.124;2023-01-13T16:51:45;16.77;;;3.40;;
10721;SDS011;5412;59.450;18.124;2023-01-13T16:54:10;18.03;;;3.20;;
10721;SDS011;5412;59.450;18.124;2023-01-13T16:56:36;22.77;;;3.50;;
10721;SDS011;5412;59.450;18.124;2023-01-13T16:59:03;15.60;;;2.87;;
10721;SDS011;5412;59.450;18.124;2023-01-13T17:01:35;14.90;;;3.80;;
10721;SDS011;5412;59.450;18.124;2023-01-13T17:04:02;22.87;;;4.07;;
10721;SDS011;5412;59.450;18.124;2023-01-13T17:09:06;20.73;;;4.43;;
10721;SDS011;5412;59.450;18.124;2023-01-13T17:11:35;20.63;;;3.47;;
10721;SDS011;5412;59.450;18.124;2023-01-13T17:14:01;15.17;;;3.47;;
10721;SDS011;5412;59.450;18.124;2023-01-13T17:16:27;20.73;;;3.80;;
10721;SDS011;5412;59.450;18.124;2023-01-13T17:18:52;21.70;;;3.80;;
10721;SDS011;5412;59.450;18.124;2023-01-13T17:21:18;18.93;;;3.87;;
10721;SDS011;5412;59.450;18.124;2023-01-13T17:23:44;18.97;;;3.67;;
10721;SDS011;5412;59.450;18.124;2023-01-13T17:28:57;19.97;;;3.97;;
10721;SDS011;5412;59.450;18.124;2023-01-13T17:31:26;14.73;;;4.30;;
10721;SDS011;5412;59.450;18.124;2023-01-13T17:33:52;17.07;;;4.33;;
10721;SDS011;5412;59.450;18.124;2023-01-13T17:36:18;17.20;;;3.70;;
10721;SDS011;5412;59.450;18.124;2023-01-13T17:38:44;18.73;;;3.63;;
10721;SDS011;5412;59.450;18.124;2023-01-13T17:41:10;17.93;;;3.30;;